createdAt,value
2018-12-20T00:00:49.853Z,19.00
2018-12-20T00:03:18.183Z,18.33
2018-12-20T00:05:46.422Z,19.70
2018-12-20T00:08:14.907Z,18.27
2018-12-20T00:10:43.278Z,17.97
2018-12-20T00:13:11.689Z,17.80
2018-12-20T00:15:40.177Z,18.33
2018-12-20T00:18:08.628Z,18.67
2018-12-20T00:20:36.947Z,18.47
2018-12-20T00:23:05.217Z,18.30
2018-12-20T00:25:33.700Z,19.13
2018-12-20T00:28:02.263Z,17.97
2018-12-20T00:30:30.517Z,19.17
2018-12-20T00:32:58.798Z,18.10
2018-12-20T00:35:27.396Z,18.83
2018-12-20T00:37:55.862Z,17.47
2018-12-20T00:40:24.399Z,18.13
2018-12-20T00:42:52.682Z,18.60
2018-12-20T00:45:20.970Z,18.87
2018-12-20T00:47:49.678Z,20.47
2018-12-20T00:50:18.109Z,18.17
2018-12-20T00:52:46.500Z,19.80
2018-12-20T00:55:14.891Z,19.00
2018-12-20T00:57:43.285Z,18.37
2018-12-20T01:00:11.890Z,19.50
2018-12-20T01:02:40.321Z,18.77
2018-12-20T01:05:08.750Z,19.97
2018-12-20T01:07:37.084Z,19.90
2018-12-20T01:10:05.605Z,19.77
2018-12-20T01:12:34.255Z,19.43
2018-12-20T01:15:02.652Z,19.17
2018-12-20T01:17:36.482Z,18.67
2018-12-20T01:20:05.095Z,18.50
2018-12-20T01:22:33.354Z,19.47
2018-12-20T01:25:01.789Z,20.00
2018-12-20T01:27:30.085Z,20.43
2018-12-20T01:29:58.362Z,21.27
2018-12-20T01:32:26.862Z,20.57
2018-12-20T01:34:55.290Z,20.53
2018-12-20T01:37:23.783Z,21.40
2018-12-20T01:39:52.117Z,21.03
2018-12-20T01:42:20.510Z,20.70
2018-12-20T01:44:53.479Z,21.10
2018-12-20T01:47:19.186Z,23.07
2018-12-20T01:49:47.509Z,22.80
2018-12-20T01:52:15.888Z,21.80
2018-12-20T01:54:44.237Z,22.90
2018-12-20T01:57:12.662Z,21.97
2018-12-20T01:59:41.168Z,22.00
2018-12-20T02:02:09.648Z,21.07
2018-12-20T02:04:37.998Z,22.80
2018-12-20T02:07:06.401Z,22.20
2018-12-20T02:09:34.799Z,22.77
2018-12-20T02:12:03.335Z,22.17
2018-12-20T02:14:31.663Z,24.90
2018-12-20T02:17:00.056Z,24.27
2018-12-20T02:19:28.412Z,21.40
2018-12-20T02:24:50.152Z,21.03
2018-12-20T02:27:18.698Z,21.40
2018-12-20T02:29:47.166Z,20.90
2018-12-20T02:32:15.571Z,19.70
2018-12-20T02:34:43.868Z,20.30
2018-12-20T02:37:12.231Z,21.97
2018-12-20T02:39:40.588Z,22.27
2018-12-20T02:42:09.001Z,22.33
2018-12-20T02:44:37.437Z,24.97
2018-12-20T02:47:05.823Z,24.60
2018-12-20T02:49:34.219Z,25.87
2018-12-20T02:52:02.671Z,26.57
2018-12-20T02:54:30.932Z,25.67
2018-12-20T02:56:59.343Z,24.40
2018-12-20T02:59:27.772Z,25.33
2018-12-20T03:01:56.092Z,26.77
2018-12-20T03:04:24.692Z,25.57
2018-12-20T03:06:53.168Z,25.50
2018-12-20T03:09:21.451Z,25.03
2018-12-20T03:11:49.763Z,25.37
2018-12-20T03:14:18.183Z,23.90
2018-12-20T03:16:46.415Z,24.00
2018-12-20T03:19:14.669Z,25.20
2018-12-20T03:21:43.090Z,22.83
2018-12-20T03:24:11.593Z,24.10
2018-12-20T03:26:40.076Z,23.77
2018-12-20T03:29:08.600Z,24.53
2018-12-20T03:31:37.174Z,24.87
2018-12-20T03:34:05.573Z,23.53
2018-12-20T03:36:33.904Z,25.77
2018-12-20T03:39:02.198Z,24.70
2018-12-20T03:41:30.564Z,23.67
2018-12-20T03:43:58.858Z,24.33
2018-12-20T03:46:27.395Z,24.70
2018-12-20T03:48:55.797Z,24.80
2018-12-20T03:51:24.622Z,24.90
2018-12-20T03:53:53.135Z,24.80
2018-12-20T03:56:21.634Z,23.23
2018-12-20T03:58:49.859Z,23.03
2018-12-20T04:01:18.341Z,24.60
2018-12-20T04:03:46.762Z,26.03
2018-12-20T04:06:15.145Z,24.70
2018-12-20T04:08:43.501Z,23.17
2018-12-20T04:11:12.026Z,24.53
2018-12-20T04:13:40.442Z,24.07
2018-12-20T04:16:08.895Z,23.00
2018-12-20T04:18:37.331Z,23.83
2018-12-20T04:21:05.582Z,24.63
2018-12-20T04:23:33.931Z,24.97
2018-12-20T04:26:02.206Z,26.80
2018-12-20T04:28:30.458Z,26.30
2018-12-20T04:30:58.914Z,27.20
2018-12-20T04:33:27.524Z,26.50
2018-12-20T04:35:55.977Z,27.33
2018-12-20T04:38:24.491Z,25.90
2018-12-20T04:40:52.853Z,25.87
2018-12-20T04:43:28.036Z,26.17
2018-12-20T04:45:56.323Z,26.23
2018-12-20T04:48:24.799Z,27.47
2018-12-20T04:50:53.428Z,24.67
2018-12-20T04:53:21.960Z,24.10
2018-12-20T04:55:50.511Z,25.63
2018-12-20T04:58:18.897Z,26.10
2018-12-20T05:00:47.299Z,25.07
2018-12-20T05:03:15.693Z,26.63
2018-12-20T05:05:44.399Z,25.90
2018-12-20T05:08:12.862Z,26.03
2018-12-20T05:10:41.147Z,24.30
2018-12-20T05:13:09.417Z,28.33
2018-12-20T05:15:37.741Z,26.87
2018-12-20T05:18:06.040Z,26.33
2018-12-20T05:20:34.543Z,26.27
2018-12-20T05:23:03.255Z,29.23
2018-12-20T05:25:31.678Z,27.13
2018-12-20T05:28:00.307Z,27.30
2018-12-20T05:30:28.523Z,28.47
2018-12-20T05:32:56.798Z,28.87
2018-12-20T05:35:25.545Z,28.63
2018-12-20T05:37:54.012Z,28.97
2018-12-20T05:40:22.405Z,29.53
2018-12-20T05:42:50.681Z,28.47
2018-12-20T05:45:19.036Z,28.70
2018-12-20T05:47:47.331Z,27.67
2018-12-20T05:50:15.628Z,28.67
2018-12-20T05:52:44.031Z,26.77
2018-12-20T05:55:12.326Z,26.80
2018-12-20T05:57:40.574Z,28.97
2018-12-20T06:00:09.552Z,28.83
2018-12-20T06:02:37.919Z,27.73
2018-12-20T06:05:06.867Z,26.93
2018-12-20T06:07:35.189Z,27.63
2018-12-20T06:10:03.609Z,29.43
2018-12-20T06:12:32.144Z,28.90
2018-12-20T06:15:00.462Z,29.20
2018-12-20T06:17:29.041Z,28.33
2018-12-20T06:19:57.573Z,30.70
2018-12-20T06:22:25.925Z,29.73
2018-12-20T06:24:54.453Z,29.03
2018-12-20T06:27:22.786Z,29.13
2018-12-20T06:29:51.012Z,30.00
2018-12-20T06:32:19.347Z,28.00
2018-12-20T06:34:47.578Z,27.10
2018-12-20T06:37:15.817Z,26.87
2018-12-20T06:39:50.566Z,27.23
2018-12-20T06:42:18.784Z,29.33
2018-12-20T06:44:47.048Z,28.50
2018-12-20T06:47:15.294Z,28.17
2018-12-20T06:49:43.508Z,28.40
2018-12-20T06:52:11.763Z,28.83
2018-12-20T06:54:39.968Z,29.40
2018-12-20T06:57:08.176Z,30.70
2018-12-20T06:59:36.409Z,31.73
2018-12-20T07:02:05.066Z,29.70
2018-12-20T07:04:33.306Z,28.93
2018-12-20T07:07:01.580Z,29.70
2018-12-20T07:09:29.950Z,28.17
2018-12-20T07:11:58.176Z,29.27
2018-12-20T07:14:26.420Z,30.27
2018-12-20T07:16:54.678Z,30.13
2018-12-20T07:19:22.927Z,31.13
2018-12-20T07:21:51.215Z,33.80
2018-12-20T07:24:19.444Z,29.87
2018-12-20T07:26:47.687Z,31.83
2018-12-20T07:29:15.942Z,29.87
2018-12-20T07:31:56.356Z,29.60
2018-12-20T07:34:24.577Z,30.43
2018-12-20T07:36:52.798Z,29.93
2018-12-20T07:39:21.037Z,30.87
2018-12-20T07:41:49.468Z,32.60
2018-12-20T07:44:17.809Z,31.30
2018-12-20T07:46:46.269Z,33.93
2018-12-20T07:49:14.731Z,32.50
2018-12-20T07:51:43.030Z,32.77
2018-12-20T07:54:11.651Z,32.40
2018-12-20T07:56:40.127Z,32.77
2018-12-20T07:59:08.524Z,32.53
2018-12-20T08:01:36.892Z,32.80
2018-12-20T08:04:05.203Z,32.43
2018-12-20T08:06:33.578Z,32.00
2018-12-20T08:09:01.907Z,33.77
2018-12-20T08:11:30.239Z,33.87
2018-12-20T08:13:58.480Z,32.97
2018-12-20T08:16:26.771Z,34.03
2018-12-20T08:18:55.025Z,32.83
2018-12-20T08:21:23.224Z,31.30
2018-12-20T08:23:51.478Z,32.13
2018-12-20T08:26:19.819Z,31.53
2018-12-20T08:28:48.190Z,28.37
2018-12-20T08:31:16.425Z,30.00
2018-12-20T08:33:44.746Z,30.63
2018-12-20T08:36:13.011Z,30.73
2018-12-20T08:38:41.197Z,31.30
2018-12-20T08:41:09.434Z,32.40
2018-12-20T08:43:37.717Z,32.70
2018-12-20T08:46:05.993Z,32.40
2018-12-20T08:48:34.234Z,31.60
2018-12-20T08:51:02.576Z,31.20
2018-12-20T08:53:30.883Z,32.03
2018-12-20T08:55:59.080Z,31.30
2018-12-20T08:58:27.330Z,33.10
2018-12-20T09:00:55.707Z,33.47
2018-12-20T09:03:23.988Z,31.47
2018-12-20T09:05:52.334Z,30.97
2018-12-20T09:08:20.548Z,30.93
2018-12-20T09:10:48.775Z,31.67
2018-12-20T09:13:17.029Z,32.13
2018-12-20T09:15:45.354Z,32.37
2018-12-20T09:18:13.636Z,30.93
2018-12-20T09:20:41.916Z,32.97
2018-12-20T09:23:10.118Z,32.27
2018-12-20T09:25:38.372Z,31.53
2018-12-20T09:28:06.674Z,31.43
2018-12-20T09:30:34.947Z,30.40
2018-12-20T09:33:03.194Z,31.13
2018-12-20T09:35:31.530Z,29.73
2018-12-20T09:38:01.048Z,31.10
2018-12-20T09:40:29.537Z,30.93
2018-12-20T09:42:57.770Z,29.83
2018-12-20T09:45:26.045Z,30.73
2018-12-20T09:47:58.552Z,31.83
2018-12-20T09:50:26.950Z,29.43
2018-12-20T09:52:55.197Z,31.90
2018-12-20T09:55:23.442Z,30.73
2018-12-20T09:57:51.689Z,31.40
2018-12-20T10:00:19.945Z,31.37
2018-12-20T10:02:48.201Z,30.47
2018-12-20T10:05:16.796Z,30.67
2018-12-20T10:07:45.002Z,30.27
2018-12-20T10:10:13.304Z,29.70
2018-12-20T10:12:41.564Z,31.37
2018-12-20T10:15:09.842Z,31.30
2018-12-20T10:17:38.052Z,31.90
2018-12-20T10:20:08.969Z,31.00
2018-12-20T10:22:37.199Z,31.43
2018-12-20T10:25:05.684Z,30.70
2018-12-20T10:27:34.064Z,33.03
2018-12-20T10:30:02.450Z,30.33
2018-12-20T10:32:30.710Z,30.70
2018-12-20T10:34:58.944Z,30.53
2018-12-20T10:37:27.202Z,32.07
2018-12-20T10:39:55.460Z,32.00
2018-12-20T10:42:23.702Z,32.60
2018-12-20T10:44:52.052Z,33.33
2018-12-20T10:47:29.277Z,34.00
2018-12-20T10:49:56.033Z,34.60
2018-12-20T10:52:24.298Z,32.73
2018-12-20T10:54:52.714Z,33.77
2018-12-20T10:57:20.938Z,34.27
2018-12-20T10:59:49.216Z,32.10
2018-12-20T11:02:22.938Z,32.63
2018-12-20T11:04:56.543Z,33.73
2018-12-20T11:07:30.288Z,33.67
2018-12-20T11:10:03.898Z,32.03
2018-12-20T11:12:37.602Z,34.30
2018-12-20T11:15:06.951Z,36.00
2018-12-20T11:17:37.429Z,35.70
2018-12-20T11:20:05.866Z,34.13
2018-12-20T11:22:34.265Z,36.57
2018-12-20T11:25:02.498Z,32.83
2018-12-20T11:27:31.006Z,33.27
2018-12-20T11:29:59.306Z,33.07
2018-12-20T11:32:27.574Z,33.17
2018-12-20T11:34:55.783Z,32.23
2018-12-20T11:37:24.026Z,33.40
2018-12-20T11:39:59.370Z,31.83
2018-12-20T11:42:23.038Z,32.40
2018-12-20T11:44:51.284Z,31.93
2018-12-20T11:47:24.863Z,31.33
2018-12-20T11:49:53.094Z,31.53
2018-12-20T11:52:21.362Z,30.67
2018-12-20T11:54:49.642Z,32.50
2018-12-20T11:57:17.890Z,31.83
2018-12-20T11:59:46.131Z,34.27
2018-12-20T12:02:14.467Z,34.73
2018-12-20T12:04:42.727Z,32.63
2018-12-20T12:07:10.932Z,31.00
2018-12-20T12:09:39.191Z,30.33
2018-12-20T12:12:07.482Z,31.80
2018-12-20T12:14:35.778Z,32.80
2018-12-20T12:17:04.139Z,29.77
2018-12-20T12:19:32.346Z,31.53
2018-12-20T12:22:00.616Z,31.80
2018-12-20T12:24:28.952Z,32.07
2018-12-20T12:27:10.149Z,31.97
2018-12-20T12:29:38.439Z,30.10
2018-12-20T12:36:03.281Z,31.07
2018-12-20T12:38:31.595Z,30.37
2018-12-20T12:40:59.935Z,32.53
2018-12-20T12:43:28.185Z,31.60
2018-12-20T12:47:17.830Z,30.77
2018-12-20T12:49:46.155Z,30.73
2018-12-20T12:52:14.474Z,30.90
2018-12-20T12:54:43.200Z,31.53
2018-12-20T12:57:16.154Z,30.63
2018-12-20T12:59:44.369Z,31.37
2018-12-20T13:02:12.620Z,31.20
2018-12-20T13:04:40.884Z,30.00
2018-12-20T13:07:09.164Z,29.47
2018-12-20T13:09:37.389Z,29.77
2018-12-20T13:12:05.652Z,31.63
2018-12-20T13:14:34.132Z,30.70
2018-12-20T13:17:02.373Z,28.93
2018-12-20T13:19:30.594Z,34.07
2018-12-20T13:21:58.853Z,34.97
2018-12-20T13:24:27.134Z,33.83
2018-12-20T13:26:55.390Z,39.33
2018-12-20T13:29:23.654Z,32.47
2018-12-20T13:31:52.004Z,33.03
2018-12-20T13:34:20.228Z,28.30
2018-12-20T13:36:48.636Z,26.77
2018-12-20T13:42:09.847Z,25.77
2018-12-20T13:44:38.130Z,24.77
2018-12-20T13:47:06.362Z,26.27
2018-12-20T13:49:34.569Z,29.13
2018-12-20T13:52:02.922Z,30.97
2018-12-20T13:54:31.145Z,33.97
2018-12-20T13:56:59.365Z,25.07
2018-12-20T13:59:27.627Z,32.20
2018-12-20T14:01:55.888Z,31.60
2018-12-20T14:04:24.245Z,28.03
2018-12-20T14:06:52.522Z,28.33
2018-12-20T14:09:21.570Z,32.57
2018-12-20T14:11:53.222Z,29.60
2018-12-20T14:14:22.140Z,28.60
2018-12-20T14:16:51.106Z,25.70
2018-12-20T14:19:20.049Z,33.23
2018-12-20T14:21:48.974Z,26.40
2018-12-20T14:24:17.640Z,29.53
2018-12-20T14:26:46.002Z,25.53
2018-12-20T14:29:14.223Z,28.03
2018-12-20T14:31:42.509Z,28.43
2018-12-20T14:34:10.782Z,29.13
2018-12-20T14:36:39.220Z,27.53
2018-12-20T14:39:14.174Z,27.90
2018-12-20T14:41:42.401Z,27.27
2018-12-20T14:44:10.828Z,25.40
2018-12-20T14:46:39.065Z,26.50
2018-12-20T14:49:07.352Z,24.73
2018-12-20T14:54:28.763Z,26.07
2018-12-20T14:56:57.020Z,24.97
2018-12-20T14:59:25.594Z,26.47
2018-12-20T15:01:53.907Z,25.30
2018-12-20T15:04:22.205Z,22.30
2018-12-20T15:06:50.619Z,24.73
2018-12-20T15:09:18.920Z,23.63
2018-12-20T15:11:47.540Z,24.80
2018-12-20T15:14:16.163Z,24.80
2018-12-20T15:16:44.409Z,23.77
2018-12-20T15:19:12.751Z,23.43
2018-12-20T15:21:41.221Z,23.00
2018-12-20T15:24:09.930Z,23.17
2018-12-20T15:26:38.276Z,21.97
2018-12-20T15:29:06.609Z,22.70
2018-12-20T15:31:34.953Z,21.13
2018-12-20T15:34:03.223Z,23.20
2018-12-20T15:36:32.067Z,24.67
2018-12-20T15:39:00.401Z,24.47
2018-12-20T15:41:28.673Z,23.60
2018-12-20T15:43:56.938Z,26.00
2018-12-20T15:46:25.230Z,26.67
2018-12-20T15:48:57.679Z,25.33
2018-12-20T15:51:26.752Z,27.63
2018-12-20T15:53:55.256Z,21.93
2018-12-20T15:56:23.779Z,18.87
2018-12-20T15:58:52.030Z,21.80
2018-12-20T16:01:20.291Z,23.77
2018-12-20T16:03:48.666Z,23.17
2018-12-20T16:06:16.957Z,21.03
2018-12-20T16:08:45.690Z,19.33
2018-12-20T16:11:14.141Z,22.00
2018-12-20T16:13:42.422Z,22.87
2018-12-20T16:16:10.805Z,26.33
2018-12-20T16:18:39.147Z,21.73
2018-12-20T16:21:07.446Z,23.20
2018-12-20T16:23:35.724Z,23.10
2018-12-20T16:26:04.166Z,21.47
2018-12-20T16:28:32.471Z,24.03
2018-12-20T16:31:00.749Z,22.40
2018-12-20T16:33:29.156Z,23.80
2018-12-20T16:35:57.535Z,24.37
2018-12-20T16:38:25.937Z,21.60
2018-12-20T16:40:54.365Z,20.77
2018-12-20T16:43:22.651Z,20.60
2018-12-20T16:48:45.077Z,24.03
2018-12-20T16:51:14.752Z,24.30
2018-12-20T16:53:43.058Z,33.87
2018-12-20T16:56:11.520Z,28.03
2018-12-20T16:58:39.873Z,26.30
2018-12-20T17:01:08.193Z,23.33
2018-12-20T17:06:29.342Z,22.40
2018-12-20T17:11:50.706Z,23.13
2018-12-20T17:14:19.164Z,24.60
2018-12-20T17:16:54.450Z,21.73
2018-12-20T17:19:22.820Z,22.00
2018-12-20T17:24:44.736Z,20.73
2018-12-20T17:27:13.137Z,22.90
2018-12-20T17:29:42.594Z,21.37
2018-12-20T17:32:11.302Z,19.90
2018-12-20T17:34:40.110Z,22.33
2018-12-20T17:37:09.092Z,20.97
2018-12-20T17:39:38.382Z,23.50
2018-12-20T17:42:07.268Z,22.90
2018-12-20T17:44:35.603Z,24.40
2018-12-20T17:47:04.152Z,23.40
2018-12-20T17:49:32.568Z,23.33
2018-12-20T17:52:01.308Z,23.80
2018-12-20T17:54:29.791Z,23.17
2018-12-20T17:56:58.116Z,24.37
2018-12-20T17:59:26.645Z,26.67
2018-12-20T18:01:56.017Z,24.30
2018-12-20T18:04:24.294Z,23.80
2018-12-20T18:06:52.672Z,23.27
2018-12-20T18:09:20.928Z,23.67
2018-12-20T18:11:49.195Z,22.77
2018-12-20T18:14:18.563Z,22.60
2018-12-20T18:16:46.856Z,23.53
2018-12-20T18:19:15.139Z,21.57
2018-12-20T18:21:43.430Z,22.23
2018-12-20T18:24:11.699Z,25.67
2018-12-20T18:26:40.055Z,25.90
2018-12-20T18:29:08.379Z,24.43
2018-12-20T18:31:36.710Z,22.63
2018-12-20T18:34:04.996Z,21.97
2018-12-20T18:36:33.388Z,23.23
2018-12-20T18:39:01.688Z,22.73
2018-12-20T18:41:29.928Z,20.97
2018-12-20T18:43:58.255Z,21.90
2018-12-20T18:46:26.507Z,19.73
2018-12-20T18:48:54.795Z,24.17
2018-12-20T18:51:23.086Z,19.63
2018-12-20T18:53:51.507Z,20.90
2018-12-20T18:56:19.753Z,22.20
2018-12-20T18:58:48.243Z,29.67
2018-12-20T19:01:16.549Z,21.33
2018-12-20T19:03:44.872Z,27.03
2018-12-20T19:06:14.240Z,25.10
2018-12-20T19:08:42.657Z,26.97
2018-12-20T19:11:31.055Z,23.70
2018-12-20T19:13:59.338Z,32.27
2018-12-20T19:16:27.544Z,28.83
2018-12-20T19:18:55.779Z,49.07
2018-12-20T19:21:24.135Z,28.20
2018-12-20T19:23:53.385Z,22.93
2018-12-20T19:26:22.401Z,22.23
2018-12-20T19:28:50.686Z,19.77
2018-12-20T19:31:18.975Z,21.97
2018-12-20T19:33:47.285Z,24.50
2018-12-20T19:36:15.567Z,25.37
2018-12-20T19:38:44.181Z,22.40
2018-12-20T19:41:12.600Z,26.20
2018-12-20T19:43:40.982Z,23.53
2018-12-20T19:46:09.309Z,22.63
2018-12-20T19:48:37.661Z,22.27
2018-12-20T19:51:05.999Z,20.57
2018-12-20T19:53:34.376Z,17.07
2018-12-20T19:56:02.703Z,17.70
2018-12-20T19:58:31.068Z,16.83
2018-12-20T20:00:59.412Z,16.00
2018-12-20T20:03:34.063Z,17.13
2018-12-20T20:06:02.391Z,19.97
2018-12-20T20:08:30.714Z,17.77
2018-12-20T20:10:59.007Z,17.47
2018-12-20T20:16:20.496Z,21.97
2018-12-20T20:21:41.792Z,19.37
2018-12-20T20:24:10.132Z,21.67
2018-12-20T20:29:31.463Z,15.17
2018-12-20T20:31:59.842Z,15.00
2018-12-20T20:34:28.109Z,15.10
2018-12-20T20:36:56.518Z,15.57
2018-12-20T20:39:43.362Z,12.83
2018-12-20T20:42:11.610Z,13.57
2018-12-20T20:44:39.936Z,14.20
2018-12-20T20:47:08.387Z,15.73
2018-12-20T20:49:36.796Z,12.00
2018-12-20T20:52:05.129Z,12.80
2018-12-20T20:54:33.530Z,12.40
2018-12-20T20:57:01.801Z,13.40
2018-12-20T20:59:30.243Z,13.73
2018-12-20T21:01:58.571Z,16.10
2018-12-20T21:04:26.898Z,12.97
2018-12-20T21:06:55.288Z,13.60
2018-12-20T21:12:22.844Z,16.47
2018-12-20T21:14:52.370Z,21.70
2018-12-20T21:17:17.832Z,24.93
2018-12-20T21:19:46.197Z,18.83
2018-12-20T21:22:14.469Z,18.53
2018-12-20T21:24:42.868Z,15.80
2018-12-20T21:27:11.438Z,14.67
2018-12-20T21:29:39.841Z,16.57
2018-12-20T21:32:08.223Z,16.63
2018-12-20T21:34:36.749Z,15.30
2018-12-20T21:37:05.168Z,18.70
2018-12-20T21:39:33.536Z,16.93
2018-12-20T21:42:01.821Z,17.23
2018-12-20T21:44:30.135Z,18.20
2018-12-20T21:46:58.449Z,17.70
2018-12-20T21:49:26.773Z,18.40
2018-12-20T21:51:55.038Z,18.53
2018-12-20T21:54:23.307Z,17.73
2018-12-20T21:59:44.188Z,16.77
2018-12-20T22:05:05.700Z,16.00
2018-12-20T22:07:33.952Z,16.73
2018-12-20T22:10:02.255Z,16.90
2018-12-20T22:12:30.546Z,16.77
2018-12-20T22:14:58.846Z,19.73
2018-12-20T22:17:27.235Z,18.27
2018-12-20T22:19:58.683Z,17.63
2018-12-20T22:22:25.960Z,18.40
2018-12-20T22:24:54.227Z,18.03
2018-12-20T22:27:22.595Z,18.20
2018-12-20T22:29:51.098Z,20.13
2018-12-20T22:32:19.427Z,18.30
2018-12-20T22:34:47.765Z,18.27
2018-12-20T22:37:16.172Z,16.77
2018-12-20T22:39:44.467Z,17.60
2018-12-20T22:42:12.728Z,15.43
2018-12-20T22:44:40.983Z,17.27
2018-12-20T22:47:09.281Z,19.47
2018-12-20T22:49:37.618Z,18.90
2018-12-20T22:52:05.815Z,24.27
2018-12-20T22:54:34.181Z,24.90
2018-12-20T22:57:02.476Z,19.77
2018-12-20T22:59:30.780Z,21.43
2018-12-20T23:01:59.163Z,19.30
2018-12-20T23:04:27.428Z,20.00
2018-12-20T23:06:55.732Z,20.20
2018-12-20T23:09:24.086Z,18.90
2018-12-20T23:11:52.375Z,18.83
2018-12-20T23:14:20.761Z,19.37
2018-12-20T23:16:53.657Z,17.90
2018-12-20T23:19:19.817Z,17.47
2018-12-20T23:21:48.192Z,19.00
2018-12-20T23:24:16.512Z,18.07
2018-12-20T23:26:44.856Z,18.93
2018-12-20T23:29:13.159Z,19.00
2018-12-20T23:31:42.039Z,18.67
2018-12-20T23:34:10.394Z,18.33
2018-12-20T23:36:38.624Z,20.00
2018-12-20T23:39:08.886Z,18.30
2018-12-20T23:41:37.139Z,18.40
2018-12-20T23:44:05.462Z,19.10
2018-12-20T23:46:33.742Z,18.70
2018-12-20T23:49:02.019Z,19.03
2018-12-20T23:51:30.286Z,20.40
2018-12-20T23:53:58.573Z,19.00
2018-12-20T23:56:26.908Z,20.23
2018-12-20T23:58:55.137Z,20.57
